Time;durP1;ratioP1;P1;durP2;ratioP2;P2;SDS_P1;SDS_P2;PMS_P1;PMS_P2;Temp;Humidity;BMP_temperature;BMP_pressure;BME280_temperature;BME280_humidity;BME280_pressure;Samples;Min_cycle;Max_cycle;Signal;HPM_P1;HPM_P2
2022/04/14 00:00:13;;;;;;;42.20;31.65;;;15.90;99.90;;;;;;5071943;28;20032;-78
2022/04/14 00:02:39;;;;;;;41.15;30.15;;;15.90;99.90;;;;;;5071979;28;20017;-77
2022/04/14 00:05:05;;;;;;;42.15;31.35;;;15.80;99.90;;;;;;5072097;28;20035;-77
2022/04/14 00:07:31;;;;;;;47.47;34.03;;;15.90;99.90;;;;;;5071485;28;20479;-77
2022/04/14 00:09:57;;;;;;;45.60;32.67;;;15.80;99.90;;;;;;5070947;28;20076;-77
2022/04/14 00:12:22;;;;;;;42.83;31.55;;;15.80;99.90;;;;;;5071982;28;20063;-77
2022/04/14 00:14:48;;;;;;;55.88;34.10;;;15.80;99.90;;;;;;5067732;28;20076;-78
2022/04/14 00:17:14;;;;;;;45.13;32.67;;;15.80;99.90;;;;;;5071725;28;20422;-78
2022/04/14 00:19:40;;;;;;;61.88;32.83;;;15.80;99.90;;;;;;5070782;28;20021;-78
2022/04/14 00:22:06;;;;;;;57.20;33.72;;;15.80;99.90;;;;;;5072310;28;20107;-77
2022/04/14 00:24:32;;;;;;;54.45;35.72;;;15.80;99.90;;;;;;5072307;28;20107;-78
2022/04/14 00:26:57;;;;;;;57.45;37.50;;;15.80;99.90;;;;;;5072221;28;20036;-78
2022/04/14 00:29:23;;;;;;;55.53;37.50;;;15.80;99.90;;;;;;5071497;28;20048;-77
2022/04/14 00:31:49;;;;;;;306.45;42.70;;;15.80;99.90;;;;;;5071337;28;20434;-78
2022/04/14 00:34:14;;;;;;;113.22;39.17;;;15.80;99.90;;;;;;5071511;28;20055;-78
2022/04/14 00:36:40;;;;;;;314.50;41.47;;;15.80;99.90;;;;;;5071513;28;20028;-78
2022/04/14 00:39:06;;;;;;;87.43;37.33;;;15.70;99.90;;;;;;5071347;28;20044;-78
2022/04/14 00:41:31;;;;;;;63.55;38.85;;;15.70;99.90;;;;;;5071279;28;20042;-78
2022/04/14 00:43:57;;;;;;;143.13;40.50;;;15.60;99.90;;;;;;5071267;28;20074;-77
2022/04/14 00:46:22;;;;;;;68.15;41.92;;;15.60;99.90;;;;;;5071563;28;20067;-78
2022/04/14 00:48:52;;;;;;;66.72;41.20;;;15.60;99.90;;;;;;5071285;28;20048;-79
2022/04/14 00:51:18;;;;;;;64.85;41.05;;;15.60;99.90;;;;;;5070948;28;20101;-78
2022/04/14 00:53:44;;;;;;;49.40;38.58;;;15.60;99.90;;;;;;5068600;28;20028;-78
2022/04/14 00:56:09;;;;;;;51.10;39.05;;;15.50;99.90;;;;;;5071002;28;20029;-78
2022/04/14 00:58:36;;;;;;;404.60;43.50;;;15.50;99.90;;;;;;5071447;28;20021;-78
2022/04/14 01:01:05;;;;;;;57.03;39.58;;;15.50;99.90;;;;;;5071555;28;20028;-78
2022/04/14 01:03:32;;;;;;;56.65;38.20;;;15.50;99.90;;;;;;5071351;28;20024;-78
2022/04/14 01:05:59;;;;;;;224.95;38.58;;;15.50;99.90;;;;;;5071190;28;20025;-78
2022/04/14 01:08:27;;;;;;;85.22;36.95;;;15.50;99.90;;;;;;5071355;28;20032;-78
2022/04/14 01:10:54;;;;;;;46.15;38.13;;;15.50;99.90;;;;;;5070739;28;20044;-78
2022/04/14 01:13:20;;;;;;;42.75;35.78;;;15.50;99.90;;;;;;5070326;28;20073;-78
2022/04/14 01:15:47;;;;;;;45.40;36.22;;;15.40;99.90;;;;;;5071363;28;20107;-78
2022/04/14 01:18:14;;;;;;;119.57;37.22;;;15.40;99.90;;;;;;5073392;28;20021;-78
2022/04/14 01:20:42;;;;;;;47.55;37.40;;;15.40;99.90;;;;;;5075113;28;20379;-78
2022/04/14 01:23:09;;;;;;;42.60;34.85;;;15.50;99.90;;;;;;5069994;28;20599;-78
2022/04/14 01:25:35;;;;;;;47.55;36.75;;;15.40;99.90;;;;;;5074531;28;20034;-78
2022/04/14 01:28:02;;;;;;;40.47;34.63;;;15.50;99.90;;;;;;5075445;28;20498;-78
2022/04/14 01:30:29;;;;;;;49.33;35.33;;;15.40;99.90;;;;;;5074350;28;20032;-78
2022/04/14 01:32:56;;;;;;;73.70;35.45;;;15.40;99.90;;;;;;5074064;28;20475;-78
2022/04/14 01:35:22;;;;;;;43.70;34.67;;;15.40;99.90;;;;;;5074906;28;20021;-78
2022/04/14 01:37:48;;;;;;;58.63;37.15;;;15.40;99.90;;;;;;5074307;28;20024;-78
2022/04/14 01:40:13;;;;;;;67.75;34.25;;;15.40;99.90;;;;;;5074332;28;20024;-78
2022/04/14 01:42:39;;;;;;;54.53;36.17;;;15.40;99.90;;;;;;5074027;28;20056;-78
2022/04/14 01:45:07;;;;;;;67.78;37.40;;;15.40;99.90;;;;;;5074578;28;20099;-78
2022/04/14 01:47:41;;;;;;;52.50;37.47;;;15.40;99.90;;;;;;5073819;28;20044;-78
2022/04/14 01:50:09;;;;;;;48.30;38.10;;;15.40;99.90;;;;;;5073971;28;20036;-78
2022/04/14 01:52:36;;;;;;;51.53;38.25;;;15.40;99.90;;;;;;5073595;28;20021;-78
2022/04/14 01:55:03;;;;;;;59.58;41.33;;;15.40;99.90;;;;;;5074151;28;20379;-78
2022/04/14 01:57:28;;;;;;;187.52;44.00;;;15.40;99.90;;;;;;5074070;28;20100;-77
2022/04/14 01:59:54;;;;;;;130.95;46.08;;;15.30;99.90;;;;;;5074157;28;20510;-78
2022/04/14 02:02:19;;;;;;;58.10;43.80;;;15.30;99.90;;;;;;5073394;28;20031;-78
2022/04/14 02:04:45;;;;;;;103.70;42.45;;;15.20;99.90;;;;;;5073711;28;20064;-78
2022/04/14 02:07:11;;;;;;;122.95;41.50;;;15.10;99.90;;;;;;5073904;28;20028;-78
2022/04/14 02:09:37;;;;;;;93.68;42.60;;;15.10;99.90;;;;;;5073878;28;20399;-78
2022/04/14 02:12:04;;;;;;;201.02;43.63;;;15.00;99.90;;;;;;5073635;28;20353;-78
2022/04/14 02:14:30;;;;;;;65.53;42.00;;;15.00;99.90;;;;;;5073683;28;20066;-78
2022/04/14 02:16:55;;;;;;;227.18;44.67;;;14.90;99.90;;;;;;5073417;28;20109;-78
2022/04/14 02:19:21;;;;;;;201.07;40.63;;;14.90;99.90;;;;;;5073365;28;20027;-78
2022/04/14 02:21:46;;;;;;;148.65;37.05;;;14.90;99.90;;;;;;5073994;28;20134;-77
2022/04/14 02:24:12;;;;;;;203.73;41.38;;;14.90;99.90;;;;;;5073599;28;20034;-78
2022/04/14 02:26:38;;;;;;;178.70;38.92;;;14.80;99.90;;;;;;5073479;28;20060;-78
2022/04/14 02:29:03;;;;;;;131.07;38.72;;;14.80;99.90;;;;;;5072137;28;20031;-78
2022/04/14 02:31:29;;;;;;;131.73;38.63;;;14.80;99.90;;;;;;5074352;28;20032;-78
2022/04/14 02:33:54;;;;;;;110.70;38.28;;;14.70;99.90;;;;;;5073490;28;20025;-78
2022/04/14 02:36:20;;;;;;;155.38;40.92;;;14.70;99.90;;;;;;5073632;28;20146;-78
2022/04/14 02:38:45;;;;;;;185.45;40.92;;;14.60;99.90;;;;;;5072273;28;20464;-78
2022/04/14 02:41:11;;;;;;;125.43;38.40;;;14.50;99.90;;;;;;5073137;28;20059;-78
2022/04/14 02:43:37;;;;;;;281.17;41.15;;;14.50;99.90;;;;;;5073381;28;20361;-78
2022/04/14 02:46:04;;;;;;;365.25;41.08;;;14.40;99.90;;;;;;5073212;28;20025;-78
2022/04/14 02:48:31;;;;;;;270.48;37.30;;;14.30;99.90;;;;;;5072955;28;20111;-78
2022/04/14 02:50:56;;;;;;;116.88;36.40;;;14.20;99.90;;;;;;5070012;28;20037;-77
2022/04/14 02:53:22;;;;;;;60.17;38.10;;;14.20;99.90;;;;;;5072801;28;20062;-77
2022/04/14 02:55:47;;;;;;;123.90;36.90;;;14.00;99.90;;;;;;5072837;28;20029;-78
2022/04/14 02:58:14;;;;;;;228.82;37.72;;;14.00;99.90;;;;;;5073018;28;20055;-78
2022/04/14 03:00:39;;;;;;;123.88;38.67;;;14.00;99.90;;;;;;5072312;28;20464;-78
2022/04/14 03:03:05;;;;;;;50.92;36.92;;;14.00;99.90;;;;;;5072911;28;20040;-78
2022/04/14 03:05:31;;;;;;;90.45;35.75;;;14.00;99.90;;;;;;5072365;28;20028;-78
2022/04/14 03:07:56;;;;;;;70.43;38.40;;;14.10;99.90;;;;;;5072832;28;20161;-78
2022/04/14 03:10:22;;;;;;;77.50;38.75;;;14.00;99.90;;;;;;5072343;28;20387;-78
2022/04/14 03:12:49;;;;;;;79.95;40.08;;;14.10;99.90;;;;;;5072646;28;20020;-78
2022/04/14 03:15:15;;;;;;;51.50;36.92;;;14.10;99.90;;;;;;5072476;28;20029;-78
2022/04/14 03:17:41;;;;;;;118.55;37.70;;;14.10;99.90;;;;;;5072467;28;20021;-78
2022/04/14 03:20:07;;;;;;;93.25;36.67;;;14.10;99.90;;;;;;5072629;28;20476;-78
2022/04/14 03:22:34;;;;;;;59.72;35.80;;;14.00;99.90;;;;;;5072434;28;20048;-78
2022/04/14 03:25:07;;;;;;;71.50;35.63;;;14.00;99.90;;;;;;5072496;28;20028;-77
2022/04/14 03:27:34;;;;;;;57.70;36.38;;;14.00;99.90;;;;;;5072492;28;20059;-77
2022/04/14 03:29:59;;;;;;;80.22;36.92;;;14.00;99.90;;;;;;5073459;28;20035;-78
2022/04/14 03:32:25;;;;;;;80.50;37.10;;;13.90;99.90;;;;;;5072661;28;20029;-77
2022/04/14 03:34:54;;;;;;;48.05;36.45;;;13.80;99.90;;;;;;5073082;28;20032;-77
2022/04/14 03:37:20;;;;;;;49.50;35.20;;;13.80;99.90;;;;;;5072103;28;20047;-77
2022/04/14 03:39:46;;;;;;;69.82;36.72;;;13.70;99.90;;;;;;5072020;28;20093;-78
2022/04/14 03:42:12;;;;;;;58.38;34.60;;;13.80;99.90;;;;;;5071700;28;20471;-77
2022/04/14 03:44:38;;;;;;;70.05;36.53;;;13.80;99.90;;;;;;5071818;28;20468;-77
2022/04/14 03:47:04;;;;;;;67.70;36.08;;;13.80;99.90;;;;;;5072069;28;20046;-77
2022/04/14 03:49:29;;;;;;;64.10;35.30;;;13.70;99.90;;;;;;5071161;28;20039;-77
2022/04/14 03:51:55;;;;;;;66.38;34.83;;;13.70;99.90;;;;;;5071863;28;20028;-77
2022/04/14 03:54:21;;;;;;;54.25;34.22;;;13.70;99.90;;;;;;5072003;28;20035;-77
2022/04/14 03:56:48;;;;;;;56.92;33.45;;;13.70;99.90;;;;;;5071652;28;20048;-77
2022/04/14 03:59:14;;;;;;;55.35;30.65;;;13.70;99.90;;;;;;5072078;28;20062;-77
2022/04/14 04:01:40;;;;;;;301.98;37.03;;;13.80;99.90;;;;;;5071687;28;20020;-78
2022/04/14 04:04:06;;;;;;;387.20;36.05;;;13.80;99.90;;;;;;5072183;28;20027;-78
2022/04/14 04:06:31;;;;;;;69.63;30.55;;;13.70;99.90;;;;;;5071578;28;20503;-79
2022/04/14 04:08:57;;;;;;;180.52;31.88;;;13.70;99.90;;;;;;5071808;28;20064;-79
2022/04/14 04:11:22;;;;;;;46.35;29.88;;;13.70;99.90;;;;;;5071613;28;20119;-79
2022/04/14 04:13:48;;;;;;;33.70;28.63;;;13.70;99.90;;;;;;5071335;28;20407;-79
2022/04/14 04:16:14;;;;;;;131.57;29.73;;;13.70;99.90;;;;;;5071386;28;20024;-78
2022/04/14 04:18:39;;;;;;;94.45;27.25;;;13.80;99.90;;;;;;5071916;28;20042;-79
2022/04/14 04:21:05;;;;;;;106.65;28.70;;;13.70;99.90;;;;;;5071714;28;20040;-78
2022/04/14 04:23:31;;;;;;;53.67;27.15;;;13.80;99.90;;;;;;5071816;28;20059;-78
2022/04/14 04:25:56;;;;;;;140.80;28.65;;;13.80;99.90;;;;;;5071812;28;20027;-78
2022/04/14 04:28:22;;;;;;;34.15;27.33;;;13.80;99.90;;;;;;5071671;28;20379;-78
2022/04/14 04:30:48;;;;;;;31.38;26.88;;;13.70;99.90;;;;;;5070671;28;20110;-78
2022/04/14 04:33:14;;;;;;;27.73;24.02;;;13.80;99.90;;;;;;5071344;28;20025;-78
2022/04/14 04:35:39;;;;;;;26.85;24.00;;;13.80;99.90;;;;;;5072233;28;20037;-78
2022/04/14 04:38:05;;;;;;;32.63;25.20;;;13.90;99.90;;;;;;5072369;28;20071;-78
2022/04/14 04:40:31;;;;;;;115.15;26.65;;;13.90;99.90;;;;;;5071498;28;20021;-78
2022/04/14 04:42:56;;;;;;;47.75;24.65;;;14.00;99.90;;;;;;5071023;28;20024;-78
2022/04/14 04:45:22;;;;;;;29.08;25.13;;;14.00;99.90;;;;;;5071572;28;20475;-78
2022/04/14 04:47:47;;;;;;;36.67;26.08;;;14.00;99.90;;;;;;5071592;28;20056;-78
2022/04/14 04:50:13;;;;;;;140.60;25.13;;;14.00;99.90;;;;;;5071181;28;20036;-78
2022/04/14 04:52:39;;;;;;;37.30;23.67;;;14.00;99.90;;;;;;5073070;28;20025;-78
2022/04/14 04:55:05;;;;;;;227.55;27.15;;;14.10;99.90;;;;;;5074622;28;20090;-78
2022/04/14 04:57:31;;;;;;;157.27;24.52;;;14.00;99.90;;;;;;5075176;28;20032;-78
2022/04/14 04:59:56;;;;;;;171.35;26.48;;;14.00;99.90;;;;;;5074617;28;20089;-78
2022/04/14 05:02:22;;;;;;;316.42;28.30;;;13.90;99.90;;;;;;5074958;28;20528;-82
2022/04/14 05:04:48;;;;;;;252.65;28.33;;;13.90;99.90;;;;;;5075342;28;20024;-82
2022/04/14 05:07:14;;;;;;;246.98;27.25;;;13.90;99.90;;;;;;5074416;28;20503;-81
2022/04/14 05:09:39;;;;;;;288.58;27.38;;;13.80;99.90;;;;;;5074583;28;20044;-84
2022/04/14 05:12:05;;;;;;;210.57;24.63;;;13.80;99.90;;;;;;5074295;28;20036;-83
2022/04/14 05:14:31;;;;;;;391.88;29.30;;;13.90;99.90;;;;;;5074642;28;20032;-84
2022/04/14 05:16:56;;;;;;;122.10;23.55;;;13.80;99.90;;;;;;5074500;28;20102;-82
2022/04/14 05:19:22;;;;;;;232.57;25.58;;;13.70;99.90;;;;;;5074483;28;20052;-82
2022/04/14 05:21:48;;;;;;;194.18;25.48;;;13.70;99.90;;;;;;5074786;28;20025;-83
2022/04/14 05:24:14;;;;;;;408.08;27.15;;;13.70;99.90;;;;;;5074556;28;20047;-81
2022/04/14 05:26:40;;;;;;;358.83;26.90;;;13.60;99.90;;;;;;5073632;28;20025;-80
2022/04/14 05:29:07;;;;;;;192.38;24.27;;;13.60;99.90;;;;;;5073500;28;20048;-78
2022/04/14 05:31:33;;;;;;;39.00;20.58;;;13.50;99.90;;;;;;5072129;28;20040;-81
2022/04/14 05:33:58;;;;;;;42.53;22.90;;;13.60;99.90;;;;;;5074029;28;20028;-79
2022/04/14 05:36:24;;;;;;;33.60;22.13;;;13.60;99.90;;;;;;5074204;28;20032;-78
2022/04/14 05:38:50;;;;;;;149.98;22.83;;;13.60;99.90;;;;;;5074702;28;20064;-79
2022/04/14 05:41:15;;;;;;;162.15;23.88;;;13.60;99.90;;;;;;5074550;28;20546;-79
2022/04/14 05:43:41;;;;;;;249.18;26.42;;;13.60;99.90;;;;;;5074108;28;20556;-79
2022/04/14 05:46:07;;;;;;;227.20;23.33;;;13.60;99.90;;;;;;5074190;28;20020;-79
2022/04/14 05:48:33;;;;;;;73.88;21.48;;;13.50;99.90;;;;;;5074295;28;20108;-79
2022/04/14 05:50:58;;;;;;;25.05;20.55;;;13.50;99.90;;;;;;5074377;28;21631;-79
2022/04/14 05:53:26;;;;;;;56.92;20.73;;;13.50;99.90;;;;;;5074001;28;20027;-79
2022/04/14 05:55:52;;;;;;;194.85;21.55;;;13.60;99.90;;;;;;5074256;28;20032;-79
2022/04/14 05:58:18;;;;;;;62.53;19.67;;;13.60;99.90;;;;;;5074260;28;20356;-79
2022/04/14 06:00:43;;;;;;;86.88;20.75;;;13.60;99.90;;;;;;5065758;28;20029;-79
2022/04/14 06:03:09;;;;;;;68.68;22.27;;;13.70;99.90;;;;;;5073747;28;20196;-79
2022/04/14 06:05:35;;;;;;;171.98;21.40;;;13.70;99.90;;;;;;5073689;28;20036;-79
2022/04/14 06:08:00;;;;;;;41.65;22.30;;;13.80;99.90;;;;;;5073729;28;20028;-81
2022/04/14 06:10:27;;;;;;;147.48;23.20;;;13.80;99.90;;;;;;5073505;28;20537;-81
2022/04/14 06:12:56;;;;;;;31.33;20.27;;;13.70;99.90;;;;;;5073444;28;20036;-79
2022/04/14 06:15:23;;;;;;;62.30;20.17;;;13.80;99.90;;;;;;5073842;28;20031;-81
2022/04/14 06:17:49;;;;;;;43.45;20.17;;;13.70;99.90;;;;;;5073128;28;20051;-80
2022/04/14 06:20:15;;;;;;;129.60;22.70;;;13.80;99.90;;;;;;5073175;28;20032;-81
2022/04/14 06:22:43;;;;;;;47.00;21.05;;;13.80;99.90;;;;;;5074102;28;20563;-85
2022/04/14 06:25:17;;;;;;;41.50;20.33;;;13.80;99.90;;;;;;5073557;28;20028;-86
2022/04/14 06:27:46;;;;;;;25.13;19.20;;;13.80;99.90;;;;;;5073394;28;20411;-85
2022/04/14 06:30:13;;;;;;;34.00;20.42;;;13.80;99.90;;;;;;5073675;28;20115;-84
2022/04/14 06:32:39;;;;;;;30.90;20.48;;;13.80;99.90;;;;;;5073777;28;20425;-85
2022/04/14 06:35:07;;;;;;;31.25;18.77;;;13.70;99.90;;;;;;5073650;28;20020;-82
2022/04/14 06:37:34;;;;;;;29.67;19.60;;;13.70;99.90;;;;;;5073306;28;20104;-87
2022/04/14 06:39:59;;;;;;;49.08;19.23;;;13.70;99.90;;;;;;5073304;28;20041;-78
2022/04/14 06:42:25;;;;;;;38.55;20.13;;;13.70;99.90;;;;;;5073585;28;20020;-85
2022/04/14 06:44:51;;;;;;;23.23;17.90;;;13.70;99.90;;;;;;5072970;28;20387;-83
2022/04/14 06:47:16;;;;;;;59.55;20.73;;;13.70;99.90;;;;;;5072855;28;20078;-84
2022/04/14 06:49:42;;;;;;;19.95;17.85;;;13.80;99.90;;;;;;5073263;28;20203;-84
2022/04/14 06:52:08;;;;;;;30.23;18.35;;;13.80;99.90;;;;;;5072799;28;20013;-84
2022/04/14 06:54:34;;;;;;;31.85;19.25;;;13.80;99.90;;;;;;5072497;28;20563;-83
2022/04/14 06:56:59;;;;;;;22.42;18.23;;;13.90;99.90;;;;;;5069504;28;20411;-85
2022/04/14 06:59:25;;;;;;;23.13;19.88;;;13.90;99.90;;;;;;5072360;28;20221;-81
2022/04/14 07:01:51;;;;;;;31.98;20.45;;;13.90;99.90;;;;;;5072710;28;20107;-79
2022/04/14 07:04:16;;;;;;;27.40;20.73;;;13.90;99.90;;;;;;5072802;28;20119;-81
2022/04/14 07:06:42;;;;;;;24.02;20.13;;;13.90;99.90;;;;;;5073082;28;20028;-80
2022/04/14 07:09:08;;;;;;;23.50;20.40;;;14.00;99.90;;;;;;5071975;28;20500;-79
2022/04/14 07:11:33;;;;;;;26.33;23.05;;;14.00;99.90;;;;;;5071907;28;20036;-78
2022/04/14 07:13:59;;;;;;;22.25;18.80;;;14.10;99.90;;;;;;5072169;28;20024;-82
2022/04/14 07:16:25;;;;;;;26.05;20.80;;;14.10;99.90;;;;;;5071495;28;20499;-83
2022/04/14 07:18:50;;;;;;;26.50;19.45;;;14.20;99.90;;;;;;5069287;28;20028;-80
2022/04/14 07:21:16;;;;;;;26.30;22.17;;;14.30;99.90;;;;;;5072042;28;20436;-80
2022/04/14 07:23:42;;;;;;;26.13;21.25;;;14.30;99.90;;;;;;5072101;28;20028;-79
2022/04/14 07:26:08;;;;;;;28.00;22.98;;;14.30;99.90;;;;;;5071842;28;20032;-82
2022/04/14 07:28:33;;;;;;;27.02;22.73;;;14.20;99.90;;;;;;5072141;28;20460;-82
2022/04/14 07:30:59;;;;;;;24.77;22.15;;;14.30;99.90;;;;;;5071737;28;20039;-83
2022/04/14 07:33:25;;;;;;;26.63;22.30;;;14.20;99.90;;;;;;5070372;28;20033;-81
2022/04/14 07:35:52;;;;;;;28.45;23.45;;;14.30;99.90;;;;;;5071242;28;20024;-80
2022/04/14 07:38:18;;;;;;;28.15;23.98;;;14.40;99.90;;;;;;5070383;28;20037;-80
2022/04/14 07:40:44;;;;;;;27.23;23.75;;;14.40;99.90;;;;;;5070390;28;20025;-80
2022/04/14 07:43:09;;;;;;;28.85;24.83;;;14.40;99.90;;;;;;5070918;28;20070;-81
2022/04/14 07:45:35;;;;;;;25.55;22.50;;;14.40;99.90;;;;;;5070540;28;20020;-81
2022/04/14 07:48:02;;;;;;;30.83;24.63;;;14.50;99.90;;;;;;5069694;28;20365;-80
2022/04/14 07:50:28;;;;;;;33.05;26.17;;;14.60;99.90;;;;;;5069923;28;20487;-80
2022/04/14 07:52:55;;;;;;;29.98;24.60;;;14.70;99.90;;;;;;5070804;28;20029;-80
2022/04/14 07:55:26;;;;;;;29.30;23.00;;;14.80;99.90;;;;;;5071532;28;20356;-83
2022/04/14 07:57:54;;;;;;;33.58;27.05;;;15.00;99.90;;;;;;5071918;28;20021;-81
2022/04/14 08:00:20;;;;;;;34.60;28.00;;;15.20;99.90;;;;;;5072348;28;20051;-81
2022/04/14 08:03:00;;;;;;;33.47;25.77;;;15.30;99.90;;;;;;5072708;28;20025;-81
2022/04/14 08:05:43;;;;;;;29.25;24.23;;;15.40;99.90;;;;;;5072929;28;20039;-80
2022/04/14 08:08:11;;;;;;;27.83;22.10;;;15.60;99.90;;;;;;5073378;28;20024;-82
2022/04/14 08:10:38;;;;;;;23.48;19.65;;;15.70;99.90;;;;;;5072792;28;20041;-81
2022/04/14 08:13:04;;;;;;;25.40;19.63;;;15.80;99.90;;;;;;5072890;28;20044;-81
2022/04/14 08:15:30;;;;;;;23.45;19.45;;;16.00;99.90;;;;;;5073204;28;20025;-81
2022/04/14 08:17:57;;;;;;;20.92;17.70;;;16.10;99.90;;;;;;5073066;28;20028;-81
2022/04/14 08:20:23;;;;;;;22.05;16.95;;;16.10;99.90;;;;;;5072839;28;20020;-79
2022/04/14 08:22:54;;;;;;;20.10;16.02;;;16.30;99.90;;;;;;5073279;28;20029;-79
2022/04/14 08:25:24;;;;;;;19.55;14.93;;;16.30;98.90;;;;;;5072872;28;20108;-79
2022/04/14 08:27:50;;;;;;;19.13;13.75;;;16.30;98.70;;;;;;5075439;28;20062;-79
2022/04/14 08:30:17;;;;;;;20.02;14.55;;;16.30;98.70;;;;;;5075715;28;20066;-78
2022/04/14 08:32:47;;;;;;;18.35;14.38;;;16.40;98.40;;;;;;5076417;28;20024;-79
2022/04/14 08:35:15;;;;;;;19.10;15.30;;;16.40;98.50;;;;;;5076561;28;20023;-79
2022/04/14 08:37:42;;;;;;;21.25;15.95;;;16.50;98.80;;;;;;5075579;28;20039;-79
2022/04/14 08:40:13;;;;;;;22.45;15.27;;;16.50;99.10;;;;;;5075945;28;20103;-81
2022/04/14 08:42:41;;;;;;;20.85;14.45;;;16.60;99.10;;;;;;5075518;28;20016;-81
2022/04/14 08:45:12;;;;;;;20.92;15.13;;;16.60;99.10;;;;;;5075845;28;20035;-81
2022/04/14 08:47:39;;;;;;;16.55;14.40;;;16.60;99.20;;;;;;5075698;28;20043;-79
2022/04/14 08:50:07;;;;;;;20.42;15.13;;;16.60;99.00;;;;;;5076236;28;20035;-79
2022/04/14 08:52:34;;;;;;;16.88;14.23;;;16.60;98.60;;;;;;5075164;28;20044;-83
2022/04/14 08:55:04;;;;;;;16.48;13.55;;;16.50;98.60;;;;;;5075944;28;20444;-84
2022/04/14 08:57:31;;;;;;;17.25;14.05;;;16.50;98.80;;;;;;5074644;28;20545;-80
2022/04/14 08:59:58;;;;;;;19.52;13.70;;;16.60;98.80;;;;;;5074450;28;20032;-81
2022/04/14 09:02:24;;;;;;;15.48;11.98;;;16.60;98.60;;;;;;5073192;28;20032;-77
2022/04/14 09:04:51;;;;;;;15.93;12.30;;;16.80;98.10;;;;;;5072304;28;20032;-79
2022/04/14 09:07:17;;;;;;;16.90;13.07;;;17.00;98.40;;;;;;5070362;28;20016;-81
2022/04/14 09:09:44;;;;;;;17.65;13.32;;;17.10;98.10;;;;;;5074672;28;20047;-82
2022/04/14 09:12:10;;;;;;;18.30;12.32;;;17.20;97.70;;;;;;5074783;28;20029;-82
2022/04/14 09:14:37;;;;;;;14.13;11.13;;;17.20;97.60;;;;;;5073543;28;20412;-81
2022/04/14 09:17:04;;;;;;;17.63;11.25;;;17.40;97.40;;;;;;5074945;28;20051;-80
2022/04/14 09:19:31;;;;;;;16.38;10.63;;;17.60;97.20;;;;;;5074843;28;20017;-79
2022/04/14 09:21:57;;;;;;;16.20;10.73;;;17.80;95.90;;;;;;5074495;28;20032;-79
2022/04/14 09:24:39;;;;;;;14.35;10.57;;;17.80;96.00;;;;;;5074500;28;20472;-80
2022/04/14 09:27:05;;;;;;;17.48;10.93;;;18.00;95.60;;;;;;5074031;28;20047;-80
2022/04/14 09:29:31;;;;;;;19.00;10.15;;;18.20;95.40;;;;;;5074186;28;20027;-79
2022/04/14 09:31:57;;;;;;;15.50;9.63;;;18.30;94.80;;;;;;5074048;28;20109;-79
2022/04/14 09:34:45;;;;;;;16.88;9.52;;;18.40;94.20;;;;;;5074130;28;20468;-80
2022/04/14 09:37:11;;;;;;;13.88;9.48;;;18.50;94.00;;;;;;5073917;28;20367;-79
2022/04/14 09:39:53;;;;;;;13.32;8.88;;;18.60;93.60;;;;;;5074109;28;20024;-79
2022/04/14 09:42:21;;;;;;;13.15;8.93;;;18.80;93.60;;;;;;5074112;28;20027;-81
2022/04/14 09:44:48;;;;;;;11.98;8.90;;;18.90;92.80;;;;;;5074218;28;20104;-80
2022/04/14 09:47:41;;;;;;;12.52;7.65;;;18.90;92.30;;;;;;5073853;28;20032;-80
2022/04/14 09:50:22;;;;;;;9.35;6.93;;;19.00;92.10;;;;;;5072423;28;20119;-80
2022/04/14 09:53:22;;;;;;;12.77;6.50;;;19.10;91.40;;;;;;5074472;28;20030;-79
2022/04/14 09:55:50;;;;;;;12.45;6.78;;;19.10;91.10;;;;;;5073623;28;20472;-80
2022/04/14 09:58:18;;;;;;;10.25;5.68;;;19.30;90.60;;;;;;5075094;28;20402;-80
2022/04/14 10:00:48;;;;;;;10.38;5.78;;;19.30;90.00;;;;;;5074491;28;20027;-74
2022/04/14 10:03:15;;;;;;;9.50;5.57;;;19.40;90.30;;;;;;5074241;28;20155;-75
2022/04/14 10:05:40;;;;;;;13.10;6.40;;;19.60;90.10;;;;;;5073611;28;20029;-74
2022/04/14 10:08:07;;;;;;;10.10;5.95;;;19.60;88.50;;;;;;5073514;28;20036;-75
2022/04/14 10:10:38;;;;;;;11.18;6.57;;;19.80;88.40;;;;;;5072745;28;20045;-76
2022/04/14 10:13:05;;;;;;;12.57;6.38;;;19.90;88.40;;;;;;5073538;28;20169;-77
2022/04/14 10:15:35;;;;;;;10.88;6.10;;;20.00;87.10;;;;;;5073855;28;20033;-83
2022/04/14 10:18:15;;;;;;;11.55;6.57;;;19.90;87.00;;;;;;5073103;28;20028;-80
2022/04/14 10:20:43;;;;;;;11.02;6.65;;;20.00;87.20;;;;;;5073127;28;20024;-80
2022/04/14 10:23:10;;;;;;;12.48;7.30;;;20.10;87.00;;;;;;5072884;28;20468;-79
2022/04/14 10:25:38;;;;;;;10.65;6.88;;;20.10;85.80;;;;;;5073244;28;20020;-80
2022/04/14 10:28:06;;;;;;;14.82;7.82;;;20.20;86.60;;;;;;5073050;28;20383;-79
2022/04/14 10:30:32;;;;;;;12.25;6.50;;;20.20;86.00;;;;;;5072438;28;20036;-80
2022/04/14 10:32:58;;;;;;;11.38;6.35;;;20.30;86.80;;;;;;5073274;28;20035;-80
2022/04/14 10:35:28;;;;;;;11.70;6.85;;;20.30;85.80;;;;;;5072801;28;20052;-80
2022/04/14 10:38:03;;;;;;;10.60;6.35;;;20.40;85.30;;;;;;5073182;28;20090;-79
2022/04/14 10:40:31;;;;;;;13.70;6.95;;;20.40;84.90;;;;;;5072737;28;20036;-80
2022/04/14 10:42:58;;;;;;;12.70;7.50;;;20.50;86.20;;;;;;5072830;28;20428;-80
2022/04/14 10:45:24;;;;;;;12.52;7.65;;;20.70;84.90;;;;;;5072630;28;20426;-80
2022/04/14 10:47:49;;;;;;;13.70;7.18;;;20.70;85.30;;;;;;5072358;28;20032;-80
2022/04/14 10:50:23;;;;;;;14.38;7.18;;;20.90;83.90;;;;;;5071745;28;20025;-80
2022/04/14 10:53:20;;;;;;;9.63;6.28;;;21.00;83.20;;;;;;5069997;28;20074;-80
2022/04/14 10:55:48;;;;;;;11.18;6.93;;;21.00;82.10;;;;;;5069597;28;20052;-80
2022/04/14 10:58:29;;;;;;;10.93;6.35;;;20.90;81.00;;;;;;5072182;28;20424;-80
2022/04/14 11:00:56;;;;;;;10.43;6.63;;;20.80;81.40;;;;;;5073822;28;20047;-80
2022/04/14 11:03:46;;;;;;;11.40;7.60;;;20.60;81.60;;;;;;5073382;28;20085;-80
2022/04/14 11:06:41;;;;;;;10.07;6.30;;;20.50;82.90;;;;;;5072523;28;20028;-77
2022/04/14 11:09:08;;;;;;;10.75;5.90;;;20.60;82.70;;;;;;5072268;28;20403;-80
2022/04/14 11:11:59;;;;;;;9.93;5.38;;;20.70;82.30;;;;;;5072697;28;20036;-80
2022/04/14 11:14:25;;;;;;;7.43;5.35;;;20.80;82.70;;;;;;5072419;28;20486;-80
2022/04/14 11:16:50;;;;;;;10.75;5.80;;;20.90;80.90;;;;;;5072174;28;20101;-80
2022/04/14 11:19:19;;;;;;;9.98;4.20;;;20.90;80.50;;;;;;5072639;28;20056;-80
2022/04/14 11:22:01;;;;;;;10.32;4.40;;;20.80;77.00;;;;;;5072464;28;20027;-80
2022/04/14 11:24:43;;;;;;;8.38;4.72;;;20.80;77.00;;;;;;5072302;28;20034;-79
2022/04/14 11:27:18;;;;;;;7.13;3.90;;;20.70;76.30;;;;;;5070628;28;20055;-79
2022/04/14 11:29:46;;;;;;;9.57;5.05;;;20.70;75.80;;;;;;5071279;28;20447;-81
2022/04/14 11:32:13;;;;;;;8.00;4.40;;;20.80;75.80;;;;;;5072067;28;20032;-84
2022/04/14 11:34:40;;;;;;;7.25;3.35;;;20.90;77.20;;;;;;5069077;28;20101;-81
2022/04/14 11:37:44;;;;;;;7.00;2.95;;;21.00;77.40;;;;;;5070647;28;20035;-81
2022/04/14 11:40:18;;;;;;;10.45;3.95;;;20.90;75.20;;;;;;5070680;28;20028;-82
2022/04/14 11:42:48;;;;;;;7.35;3.78;;;20.70;75.20;;;;;;5069993;28;20021;-83
2022/04/14 11:45:20;;;;;;;6.72;4.38;;;20.70;75.50;;;;;;5070199;28;20032;-80
2022/04/14 11:47:46;;;;;;;8.50;4.90;;;20.60;74.80;;;;;;5071740;28;20029;-83
2022/04/14 11:50:12;;;;;;;8.25;3.72;;;20.50;75.00;;;;;;5071280;28;20074;-83
2022/04/14 11:52:40;;;;;;;6.63;3.30;;;20.40;75.60;;;;;;5071437;28;20025;-81
2022/04/14 11:55:06;;;;;;;9.25;4.13;;;20.40;76.40;;;;;;5071666;28;20040;-84
2022/04/14 11:57:33;;;;;;;9.10;4.75;;;20.40;77.60;;;;;;5071239;28;20028;-80
2022/04/14 12:00:10;;;;;;;9.00;4.40;;;20.30;78.00;;;;;;5073134;28;20021;-78
2022/04/14 12:02:36;;;;;;;7.75;4.20;;;20.30;78.30;;;;;;5072710;28;20031;-78
2022/04/14 12:05:02;;;;;;;11.23;4.28;;;20.20;77.00;;;;;;5072868;28;20056;-78
2022/04/14 12:07:33;;;;;;;10.32;3.58;;;20.20;77.20;;;;;;5073137;28;20082;-78
2022/04/14 12:10:08;;;;;;;6.55;3.13;;;20.20;76.60;;;;;;5076227;28;20106;-78
2022/04/14 12:12:37;;;;;;;8.02;3.65;;;20.20;77.10;;;;;;5073242;28;20094;-79
2022/04/14 12:15:05;;;;;;;7.38;4.50;;;20.10;76.60;;;;;;5073201;28;20045;-77
2022/04/14 12:17:33;;;;;;;11.13;4.75;;;20.00;76.40;;;;;;5072511;28;20033;-78
2022/04/14 12:20:00;;;;;;;5.93;3.25;;;20.00;76.70;;;;;;5074062;28;20078;-77
2022/04/14 12:22:29;;;;;;;8.35;3.63;;;19.90;76.70;;;;;;5072285;28;20055;-81
2022/04/14 12:24:57;;;;;;;5.72;3.30;;;19.90;77.00;;;;;;5071719;28;20093;-84
2022/04/14 12:27:34;;;;;;;7.55;4.03;;;19.90;77.50;;;;;;5071346;28;20384;-78
2022/04/14 12:30:11;;;;;;;8.52;4.30;;;19.90;78.00;;;;;;5071070;28;20487;-78